ETNG

Geilenkirchen Airport

Germany
METAR ETNG 151250Z 23005KT 9999 SCT010 BKN018 BKN050 04/01 Q0996 NOSIG
Observed Flight Rules
Dec-15 @ 12:50 UTC (an hour ago) Marginal Visual Flight Rules
Wind Visibility Clouds
230° at 5 knots 10,000+ meters
  • Scattered at 1,000' AGL
  • Broken at 1,800' AGL
  • Broken at 5,000' AGL
Temperatures Readings
Current 4°C / 39°F
Dewpoint 1°C / 34°F
Humidity 81%
Altimeter 29.41" Hg
Pressure 996 hPa
Elevation 98
METAR ETNG 151250Z 23005KT 9999 SCT010 BKN018 BKN050 04/01 Q0996 NOSIG
Observed Flight Rules
Dec-15 @ 12:50 UTC
(an hour ago)
MVFR
Wind Visibility
230° at 5 knots 10,000+ meters
Clouds
  • Scattered at 1,000' AGL
  • Broken at 1,800' AGL
  • Broken at 5,000' AGL
Temperature Dewpoint
4°C / 39°F 1°C / 34°F
Humidity Altimeter Pressure
81% 29.41" Hg 996 hPa